sensor_id;sensor_type;location;lat;lon;timestamp;temperature;humidity
31263;DHT22;17892;52.080;9.006;2022-08-19T00:01:40;21.00;88.00
31263;DHT22;17892;52.080;9.006;2022-08-19T00:04:10;21.00;88.50
31263;DHT22;17892;52.080;9.006;2022-08-19T00:06:40;21.00;88.50
31263;DHT22;17892;52.080;9.006;2022-08-19T00:09:10;21.00;88.30
31263;DHT22;17892;52.080;9.006;2022-08-19T00:11:38;21.00;88.20
31263;DHT22;17892;52.080;9.006;2022-08-19T00:14:06;21.00;88.10
31263;DHT22;17892;52.080;9.006;2022-08-19T00:16:35;21.00;88.20
31263;DHT22;17892;52.080;9.006;2022-08-19T00:19:03;21.00;88.20
31263;DHT22;17892;52.080;9.006;2022-08-19T00:21:29;20.90;88.30
31263;DHT22;17892;52.080;9.006;2022-08-19T00:23:56;20.90;88.30
31263;DHT22;17892;52.080;9.006;2022-08-19T00:26:27;20.90;88.50
31263;DHT22;17892;52.080;9.006;2022-08-19T00:28:53;20.90;88.60
31263;DHT22;17892;52.080;9.006;2022-08-19T00:31:20;20.90;88.50
31263;DHT22;17892;52.080;9.006;2022-08-19T00:33:46;20.80;88.50
31263;DHT22;17892;52.080;9.006;2022-08-19T00:36:15;20.80;89.40
31263;DHT22;17892;52.080;9.006;2022-08-19T00:38:42;20.80;88.70
31263;DHT22;17892;52.080;9.006;2022-08-19T00:41:11;20.80;88.90
31263;DHT22;17892;52.080;9.006;2022-08-19T00:43:42;20.70;89.30
31263;DHT22;17892;52.080;9.006;2022-08-19T00:46:08;20.70;89.30
31263;DHT22;17892;52.080;9.006;2022-08-19T00:48:34;20.70;89.40
31263;DHT22;17892;52.080;9.006;2022-08-19T00:51:02;20.70;89.30
31263;DHT22;17892;52.080;9.006;2022-08-19T00:53:31;20.70;89.40
31263;DHT22;17892;52.080;9.006;2022-08-19T00:56:01;20.70;89.70
31263;DHT22;17892;52.080;9.006;2022-08-19T00:58:31;20.60;89.50
31263;DHT22;17892;52.080;9.006;2022-08-19T01:00:58;20.60;89.70
31263;DHT22;17892;52.080;9.006;2022-08-19T01:03:24;20.50;89.50
31263;DHT22;17892;52.080;9.006;2022-08-19T01:05:51;20.50;89.70
31263;DHT22;17892;52.080;9.006;2022-08-19T01:08:18;20.40;89.70
31263;DHT22;17892;52.080;9.006;2022-08-19T01:10:48;20.30;89.60
31263;DHT22;17892;52.080;9.006;2022-08-19T01:13:23;20.30;89.80
31263;DHT22;17892;52.080;9.006;2022-08-19T01:15:55;20.30;90.00
31263;DHT22;17892;52.080;9.006;2022-08-19T01:18:23;20.20;89.90
31263;DHT22;17892;52.080;9.006;2022-08-19T01:20:51;20.10;89.60
31263;DHT22;17892;52.080;9.006;2022-08-19T01:23:19;20.10;89.70
31263;DHT22;17892;52.080;9.006;2022-08-19T01:25:48;20.00;89.60
31263;DHT22;17892;52.080;9.006;2022-08-19T01:28:22;19.90;89.90
31263;DHT22;17892;52.080;9.006;2022-08-19T01:30:51;19.90;90.20
31263;DHT22;17892;52.080;9.006;2022-08-19T01:33:17;19.80;89.90
31263;DHT22;17892;52.080;9.006;2022-08-19T01:35:44;19.70;89.90
31263;DHT22;17892;52.080;9.006;2022-08-19T01:38:20;19.60;89.80
31263;DHT22;17892;52.080;9.006;2022-08-19T01:40:47;19.60;90.30
31263;DHT22;17892;52.080;9.006;2022-08-19T01:43:13;19.50;90.20
31263;DHT22;17892;52.080;9.006;2022-08-19T01:45:40;19.40;89.70
31263;DHT22;17892;52.080;9.006;2022-08-19T01:48:06;19.30;89.70
31263;DHT22;17892;52.080;9.006;2022-08-19T01:50:34;19.20;89.70
31263;DHT22;17892;52.080;9.006;2022-08-19T01:53:02;19.10;89.70
31263;DHT22;17892;52.080;9.006;2022-08-19T01:55:29;19.10;90.00
31263;DHT22;17892;52.080;9.006;2022-08-19T01:57:58;19.00;90.10
31263;DHT22;17892;52.080;9.006;2022-08-19T02:00:28;18.90;90.30
31263;DHT22;17892;52.080;9.006;2022-08-19T02:02:55;18.80;90.40
31263;DHT22;17892;52.080;9.006;2022-08-19T02:05:21;18.70;90.40
31263;DHT22;17892;52.080;9.006;2022-08-19T02:07:48;18.70;90.70
31263;DHT22;17892;52.080;9.006;2022-08-19T02:10:18;18.60;90.80
31263;DHT22;17892;52.080;9.006;2022-08-19T02:12:46;18.60;91.20
31263;DHT22;17892;52.080;9.006;2022-08-19T02:15:12;18.50;91.00
31263;DHT22;17892;52.080;9.006;2022-08-19T02:17:38;18.40;91.10
31263;DHT22;17892;52.080;9.006;2022-08-19T02:20:05;18.40;91.20
31263;DHT22;17892;52.080;9.006;2022-08-19T02:22:32;18.40;91.30
31263;DHT22;17892;52.080;9.006;2022-08-19T02:24:58;18.40;91.30
31263;DHT22;17892;52.080;9.006;2022-08-19T02:27:24;18.30;91.30
31263;DHT22;17892;52.080;9.006;2022-08-19T02:29:51;18.30;91.30
31263;DHT22;17892;52.080;9.006;2022-08-19T02:32:17;18.30;91.30
31263;DHT22;17892;52.080;9.006;2022-08-19T02:34:45;18.20;91.30
31263;DHT22;17892;52.080;9.006;2022-08-19T02:37:11;18.20;91.40
31263;DHT22;17892;52.080;9.006;2022-08-19T02:39:57;18.20;91.50
31263;DHT22;17892;52.080;9.006;2022-08-19T02:42:24;18.20;91.40
31263;DHT22;17892;52.080;9.006;2022-08-19T02:44:50;18.10;91.50
31263;DHT22;17892;52.080;9.006;2022-08-19T02:47:17;18.10;91.60
31263;DHT22;17892;52.080;9.006;2022-08-19T02:49:44;18.10;91.50
31263;DHT22;17892;52.080;9.006;2022-08-19T02:52:10;18.00;91.50
31263;DHT22;17892;52.080;9.006;2022-08-19T02:54:37;18.00;91.50
31263;DHT22;17892;52.080;9.006;2022-08-19T02:57:04;17.90;91.50
31263;DHT22;17892;52.080;9.006;2022-08-19T02:59:31;17.90;91.60
31263;DHT22;17892;52.080;9.006;2022-08-19T03:01:57;17.90;91.70
31263;DHT22;17892;52.080;9.006;2022-08-19T03:04:23;17.80;91.70
31263;DHT22;17892;52.080;9.006;2022-08-19T03:06:49;17.80;91.70
31263;DHT22;17892;52.080;9.006;2022-08-19T03:09:16;17.70;91.70
31263;DHT22;17892;52.080;9.006;2022-08-19T03:11:43;17.70;91.70
31263;DHT22;17892;52.080;9.006;2022-08-19T03:14:10;17.60;91.70
31263;DHT22;17892;52.080;9.006;2022-08-19T03:16:48;17.60;91.90
31263;DHT22;17892;52.080;9.006;2022-08-19T03:19:17;17.60;92.50
31263;DHT22;17892;52.080;9.006;2022-08-19T03:21:45;17.60;92.20
31263;DHT22;17892;52.080;9.006;2022-08-19T03:24:12;17.50;92.10
31263;DHT22;17892;52.080;9.006;2022-08-19T03:26:44;17.50;92.20
31263;DHT22;17892;52.080;9.006;2022-08-19T03:29:14;17.40;92.40
31263;DHT22;17892;52.080;9.006;2022-08-19T03:31:43;17.40;92.20
31263;DHT22;17892;52.080;9.006;2022-08-19T03:34:17;17.40;92.40
31263;DHT22;17892;52.080;9.006;2022-08-19T03:36:46;17.40;92.60
31263;DHT22;17892;52.080;9.006;2022-08-19T03:39:12;17.40;92.40
31263;DHT22;17892;52.080;9.006;2022-08-19T03:41:41;17.40;92.40
31263;DHT22;17892;52.080;9.006;2022-08-19T03:44:08;17.40;92.50
31263;DHT22;17892;52.080;9.006;2022-08-19T03:46:35;17.40;92.50
31263;DHT22;17892;52.080;9.006;2022-08-19T03:49:03;17.40;92.50
31263;DHT22;17892;52.080;9.006;2022-08-19T03:51:36;17.40;92.60
31263;DHT22;17892;52.080;9.006;2022-08-19T03:54:07;17.30;92.60
31263;DHT22;17892;52.080;9.006;2022-08-19T03:56:35;17.30;92.70
31263;DHT22;17892;52.080;9.006;2022-08-19T03:59:03;17.30;92.70
31263;DHT22;17892;52.080;9.006;2022-08-19T04:01:30;17.30;92.60
31263;DHT22;17892;52.080;9.006;2022-08-19T04:03:57;17.30;92.60
31263;DHT22;17892;52.080;9.006;2022-08-19T04:06:29;17.20;92.60
31263;DHT22;17892;52.080;9.006;2022-08-19T04:08:58;17.20;92.80
31263;DHT22;17892;52.080;9.006;2022-08-19T04:11:30;17.20;92.70
31263;DHT22;17892;52.080;9.006;2022-08-19T04:13:59;17.20;92.90
31263;DHT22;17892;52.080;9.006;2022-08-19T04:16:27;17.20;92.90
31263;DHT22;17892;52.080;9.006;2022-08-19T04:18:55;17.20;93.00
31263;DHT22;17892;52.080;9.006;2022-08-19T04:21:24;17.10;93.00
31263;DHT22;17892;52.080;9.006;2022-08-19T04:23:51;17.20;93.30
31263;DHT22;17892;52.080;9.006;2022-08-19T04:26:20;17.10;93.10
31263;DHT22;17892;52.080;9.006;2022-08-19T04:28:51;17.10;93.30
31263;DHT22;17892;52.080;9.006;2022-08-19T04:31:21;17.10;93.30
31263;DHT22;17892;52.080;9.006;2022-08-19T04:33:52;17.10;93.40
31263;DHT22;17892;52.080;9.006;2022-08-19T04:36:21;17.10;93.40
31263;DHT22;17892;52.080;9.006;2022-08-19T04:38:50;17.10;93.40
31263;DHT22;17892;52.080;9.006;2022-08-19T04:41:16;17.20;93.50
31263;DHT22;17892;52.080;9.006;2022-08-19T04:44:01;17.20;93.50
31263;DHT22;17892;52.080;9.006;2022-08-19T04:46:27;17.20;93.50
31263;DHT22;17892;52.080;9.006;2022-08-19T04:48:55;17.30;93.70
31263;DHT22;17892;52.080;9.006;2022-08-19T04:51:23;17.30;93.80
31263;DHT22;17892;52.080;9.006;2022-08-19T04:53:48;17.40;93.90
31263;DHT22;17892;52.080;9.006;2022-08-19T04:56:17;17.40;94.00
31263;DHT22;17892;52.080;9.006;2022-08-19T04:58:46;17.50;94.50
31263;DHT22;17892;52.080;9.006;2022-08-19T05:01:19;17.60;94.10
31263;DHT22;17892;52.080;9.006;2022-08-19T05:03:48;17.60;94.30
31263;DHT22;17892;52.080;9.006;2022-08-19T05:06:15;17.70;94.10
31263;DHT22;17892;52.080;9.006;2022-08-19T05:08:43;17.80;94.20
31263;DHT22;17892;52.080;9.006;2022-08-19T05:11:13;17.90;94.20
31263;DHT22;17892;52.080;9.006;2022-08-19T05:13:51;18.00;94.30
31263;DHT22;17892;52.080;9.006;2022-08-19T05:16:20;18.10;94.20
31263;DHT22;17892;52.080;9.006;2022-08-19T05:18:47;18.10;94.20
31263;DHT22;17892;52.080;9.006;2022-08-19T05:21:33;18.20;94.20
31263;DHT22;17892;52.080;9.006;2022-08-19T05:24:18;18.30;94.30
31263;DHT22;17892;52.080;9.006;2022-08-19T05:26:48;18.40;94.30
31263;DHT22;17892;52.080;9.006;2022-08-19T05:29:17;18.60;94.40
31263;DHT22;17892;52.080;9.006;2022-08-19T05:31:46;18.60;94.30
31263;DHT22;17892;52.080;9.006;2022-08-19T05:34:14;18.70;94.20
31263;DHT22;17892;52.080;9.006;2022-08-19T05:36:42;18.90;94.20
31263;DHT22;17892;52.080;9.006;2022-08-19T05:39:16;19.00;94.20
31263;DHT22;17892;52.080;9.006;2022-08-19T05:41:46;19.10;94.20
31263;DHT22;17892;52.080;9.006;2022-08-19T05:44:15;19.20;94.10
31263;DHT22;17892;52.080;9.006;2022-08-19T05:46:43;19.30;94.00
31263;DHT22;17892;52.080;9.006;2022-08-19T05:49:13;19.50;94.20
31263;DHT22;17892;52.080;9.006;2022-08-19T05:51:40;19.60;93.80
31263;DHT22;17892;52.080;9.006;2022-08-19T05:54:06;19.70;93.60
31263;DHT22;17892;52.080;9.006;2022-08-19T05:56:34;19.80;93.40
31263;DHT22;17892;52.080;9.006;2022-08-19T05:59:04;19.90;93.30
31263;DHT22;17892;52.080;9.006;2022-08-19T06:01:34;20.00;93.20
31263;DHT22;17892;52.080;9.006;2022-08-19T06:04:01;20.10;93.10
31263;DHT22;17892;52.080;9.006;2022-08-19T06:06:28;20.20;93.00
31263;DHT22;17892;52.080;9.006;2022-08-19T06:08:53;20.30;92.90
31263;DHT22;17892;52.080;9.006;2022-08-19T06:11:32;20.40;92.90
31263;DHT22;17892;52.080;9.006;2022-08-19T06:14:03;20.40;92.70
31263;DHT22;17892;52.080;9.006;2022-08-19T06:16:35;20.50;92.50
31263;DHT22;17892;52.080;9.006;2022-08-19T06:19:07;20.60;92.30
31263;DHT22;17892;52.080;9.006;2022-08-19T06:21:35;20.70;92.10
31263;DHT22;17892;52.080;9.006;2022-08-19T06:24:04;20.80;92.00
31263;DHT22;17892;52.080;9.006;2022-08-19T06:26:30;20.80;91.90
31263;DHT22;17892;52.080;9.006;2022-08-19T06:28:57;20.80;91.90
31263;DHT22;17892;52.080;9.006;2022-08-19T06:31:27;20.90;91.90
31263;DHT22;17892;52.080;9.006;2022-08-19T06:33:53;20.90;91.90
31263;DHT22;17892;52.080;9.006;2022-08-19T06:36:23;21.00;91.90
31263;DHT22;17892;52.080;9.006;2022-08-19T06:38:55;21.10;91.70
31263;DHT22;17892;52.080;9.006;2022-08-19T06:41:23;21.10;91.60
31263;DHT22;17892;52.080;9.006;2022-08-19T06:43:50;21.20;91.60
31263;DHT22;17892;52.080;9.006;2022-08-19T06:46:17;21.20;91.50
31263;DHT22;17892;52.080;9.006;2022-08-19T06:48:44;21.20;91.50
31263;DHT22;17892;52.080;9.006;2022-08-19T06:51:10;21.30;91.50
31263;DHT22;17892;52.080;9.006;2022-08-19T06:53:36;21.40;91.50
31263;DHT22;17892;52.080;9.006;2022-08-19T06:56:02;21.40;91.40
31263;DHT22;17892;52.080;9.006;2022-08-19T06:58:31;21.50;91.30
31263;DHT22;17892;52.080;9.006;2022-08-19T07:00:59;21.50;91.10
31263;DHT22;17892;52.080;9.006;2022-08-19T07:03:32;21.50;91.10
31263;DHT22;17892;52.080;9.006;2022-08-19T07:06:11;21.60;91.00
31263;DHT22;17892;52.080;9.006;2022-08-19T07:08:40;21.60;90.80
31263;DHT22;17892;52.080;9.006;2022-08-19T07:11:09;21.60;90.90
31263;DHT22;17892;52.080;9.006;2022-08-19T07:13:36;21.70;90.90
31263;DHT22;17892;52.080;9.006;2022-08-19T07:16:04;21.70;90.80
31263;DHT22;17892;52.080;9.006;2022-08-19T07:18:34;21.70;90.70
31263;DHT22;17892;52.080;9.006;2022-08-19T07:21:11;21.70;90.60
31263;DHT22;17892;52.080;9.006;2022-08-19T07:23:39;21.70;90.50
31263;DHT22;17892;52.080;9.006;2022-08-19T07:26:10;21.70;90.60
31263;DHT22;17892;52.080;9.006;2022-08-19T07:28:38;21.80;90.50
31263;DHT22;17892;52.080;9.006;2022-08-19T07:31:09;21.80;90.60
31263;DHT22;17892;52.080;9.006;2022-08-19T07:33:37;21.80;90.60
31263;DHT22;17892;52.080;9.006;2022-08-19T07:36:05;21.80;90.80
31263;DHT22;17892;52.080;9.006;2022-08-19T07:38:33;21.90;90.90
31263;DHT22;17892;52.080;9.006;2022-08-19T07:40:59;22.00;90.90
31263;DHT22;17892;52.080;9.006;2022-08-19T07:43:26;22.10;90.80
31263;DHT22;17892;52.080;9.006;2022-08-19T07:45:53;22.20;90.70
31263;DHT22;17892;52.080;9.006;2022-08-19T07:48:25;22.30;90.60
31263;DHT22;17892;52.080;9.006;2022-08-19T07:50:58;22.40;90.50
31263;DHT22;17892;52.080;9.006;2022-08-19T07:53:28;22.50;90.30
31263;DHT22;17892;52.080;9.006;2022-08-19T07:55:54;22.50;90.70
31263;DHT22;17892;52.080;9.006;2022-08-19T07:58:21;22.70;90.40
31263;DHT22;17892;52.080;9.006;2022-08-19T08:00:48;22.70;90.60
31263;DHT22;17892;52.080;9.006;2022-08-19T08:03:17;22.80;90.20
31263;DHT22;17892;52.080;9.006;2022-08-19T08:05:45;22.90;90.20
31263;DHT22;17892;52.080;9.006;2022-08-19T08:08:30;23.00;90.10
31263;DHT22;17892;52.080;9.006;2022-08-19T08:11:02;23.20;90.10
31263;DHT22;17892;52.080;9.006;2022-08-19T08:13:29;23.30;90.20
31263;DHT22;17892;52.080;9.006;2022-08-19T08:15:55;23.40;90.10
31263;DHT22;17892;52.080;9.006;2022-08-19T08:18:22;23.60;90.20
31263;DHT22;17892;52.080;9.006;2022-08-19T08:20:51;23.70;90.10
31263;DHT22;17892;52.080;9.006;2022-08-19T08:23:16;23.90;90.30
31263;DHT22;17892;52.080;9.006;2022-08-19T08:25:50;24.10;90.20
31263;DHT22;17892;52.080;9.006;2022-08-19T08:28:17;24.40;90.00
31263;DHT22;17892;52.080;9.006;2022-08-19T08:30:45;24.70;89.90
31263;DHT22;17892;52.080;9.006;2022-08-19T08:33:13;25.00;89.30
31263;DHT22;17892;52.080;9.006;2022-08-19T08:35:40;25.20;88.50
31263;DHT22;17892;52.080;9.006;2022-08-19T08:38:11;25.50;86.00
31263;DHT22;17892;52.080;9.006;2022-08-19T08:40:47;25.50;83.80
31263;DHT22;17892;52.080;9.006;2022-08-19T08:43:30;25.60;83.90
31263;DHT22;17892;52.080;9.006;2022-08-19T08:46:05;25.60;84.00
31263;DHT22;17892;52.080;9.006;2022-08-19T08:51:18;25.90;85.50
31263;DHT22;17892;52.080;9.006;2022-08-19T08:53:48;26.30;85.70
31263;DHT22;17892;52.080;9.006;2022-08-19T08:56:16;26.50;84.00
31263;DHT22;17892;52.080;9.006;2022-08-19T08:58:54;26.80;84.30
31263;DHT22;17892;52.080;9.006;2022-08-19T09:01:24;27.10;80.40
31263;DHT22;17892;52.080;9.006;2022-08-19T09:03:50;27.40;81.70
31263;DHT22;17892;52.080;9.006;2022-08-19T09:09:17;27.90;78.30
31263;DHT22;17892;52.080;9.006;2022-08-19T09:11:56;28.00;78.20
31263;DHT22;17892;52.080;9.006;2022-08-19T09:17:30;28.50;76.40
31263;DHT22;17892;52.080;9.006;2022-08-19T09:22:33;29.10;75.00
31263;DHT22;17892;52.080;9.006;2022-08-19T09:25:00;29.30;73.30
31263;DHT22;17892;52.080;9.006;2022-08-19T09:27:27;29.40;72.00
31263;DHT22;17892;52.080;9.006;2022-08-19T09:29:54;29.40;70.10
31263;DHT22;17892;52.080;9.006;2022-08-19T09:32:21;29.30;69.00
31263;DHT22;17892;52.080;9.006;2022-08-19T09:34:47;29.20;68.60
31263;DHT22;17892;52.080;9.006;2022-08-19T09:37:13;29.20;69.40
31263;DHT22;17892;52.080;9.006;2022-08-19T09:39:39;29.20;70.60
31263;DHT22;17892;52.080;9.006;2022-08-19T09:42:07;29.30;71.10
31263;DHT22;17892;52.080;9.006;2022-08-19T09:44:38;29.60;70.20
31263;DHT22;17892;52.080;9.006;2022-08-19T09:47:04;29.80;69.70
31263;DHT22;17892;52.080;9.006;2022-08-19T09:49:30;30.10;68.30
31263;DHT22;17892;52.080;9.006;2022-08-19T09:51:56;30.30;68.00
31263;DHT22;17892;52.080;9.006;2022-08-19T09:54:23;30.60;67.20
31263;DHT22;17892;52.080;9.006;2022-08-19T09:56:49;30.80;65.80
31263;DHT22;17892;52.080;9.006;2022-08-19T09:59:15;31.10;63.50
31263;DHT22;17892;52.080;9.006;2022-08-19T10:01:41;31.20;62.20
31263;DHT22;17892;52.080;9.006;2022-08-19T10:04:07;31.40;61.10
31263;DHT22;17892;52.080;9.006;2022-08-19T10:06:35;31.50;60.90
31263;DHT22;17892;52.080;9.006;2022-08-19T10:09:03;31.70;60.40
31263;DHT22;17892;52.080;9.006;2022-08-19T10:11:32;31.80;59.60
31263;DHT22;17892;52.080;9.006;2022-08-19T10:13:58;31.90;59.20
31263;DHT22;17892;52.080;9.006;2022-08-19T10:16:25;32.10;58.60
31263;DHT22;17892;52.080;9.006;2022-08-19T10:18:52;32.20;58.30
31263;DHT22;17892;52.080;9.006;2022-08-19T10:21:22;32.40;57.80
31263;DHT22;17892;52.080;9.006;2022-08-19T10:23:52;32.60;56.50
31263;DHT22;17892;52.080;9.006;2022-08-19T10:26:23;32.80;54.20
31263;DHT22;17892;52.080;9.006;2022-08-19T10:28:50;32.80;54.20
31263;DHT22;17892;52.080;9.006;2022-08-19T10:31:21;32.90;54.40
31263;DHT22;17892;52.080;9.006;2022-08-19T10:33:51;32.90;52.90
31263;DHT22;17892;52.080;9.006;2022-08-19T10:36:25;32.90;53.70
31263;DHT22;17892;52.080;9.006;2022-08-19T10:38:54;32.90;52.80
31263;DHT22;17892;52.080;9.006;2022-08-19T10:41:25;32.90;52.10
31263;DHT22;17892;52.080;9.006;2022-08-19T10:43:54;32.90;50.40
31263;DHT22;17892;52.080;9.006;2022-08-19T10:46:23;32.70;50.30
31263;DHT22;17892;52.080;9.006;2022-08-19T10:48:51;32.50;50.30
31263;DHT22;17892;52.080;9.006;2022-08-19T10:51:18;32.40;50.50
31263;DHT22;17892;52.080;9.006;2022-08-19T10:54:03;32.30;50.10
31263;DHT22;17892;52.080;9.006;2022-08-19T10:56:29;32.20;49.70
31263;DHT22;17892;52.080;9.006;2022-08-19T10:59:15;32.00;49.30
31263;DHT22;17892;52.080;9.006;2022-08-19T11:01:44;31.90;49.80
31263;DHT22;17892;52.080;9.006;2022-08-19T11:04:11;31.80;49.80
31263;DHT22;17892;52.080;9.006;2022-08-19T11:06:40;31.70;49.70
31263;DHT22;17892;52.080;9.006;2022-08-19T11:09:08;31.60;49.70
31263;DHT22;17892;52.080;9.006;2022-08-19T11:11:36;31.60;50.00
31263;DHT22;17892;52.080;9.006;2022-08-19T11:14:13;31.60;49.90
31263;DHT22;17892;52.080;9.006;2022-08-19T11:16:41;31.60;49.00
31263;DHT22;17892;52.080;9.006;2022-08-19T11:19:09;31.60;49.50
31263;DHT22;17892;52.080;9.006;2022-08-19T11:21:39;31.70;48.70
31263;DHT22;17892;52.080;9.006;2022-08-19T11:24:09;31.70;48.10
31263;DHT22;17892;52.080;9.006;2022-08-19T11:26:37;31.70;48.90
31263;DHT22;17892;52.080;9.006;2022-08-19T11:29:05;31.70;49.30
31263;DHT22;17892;52.080;9.006;2022-08-19T11:31:34;31.80;49.30
31263;DHT22;17892;52.080;9.006;2022-08-19T11:34:06;31.80;48.40
31263;DHT22;17892;52.080;9.006;2022-08-19T11:36:34;31.90;47.70
31263;DHT22;17892;52.080;9.006;2022-08-19T11:39:05;31.90;47.20
31263;DHT22;17892;52.080;9.006;2022-08-19T11:41:31;31.80;47.60
31263;DHT22;17892;52.080;9.006;2022-08-19T11:43:57;31.80;47.30
31263;DHT22;17892;52.080;9.006;2022-08-19T11:46:25;31.70;47.50
31263;DHT22;17892;52.080;9.006;2022-08-19T11:48:55;31.70;47.70
31263;DHT22;17892;52.080;9.006;2022-08-19T11:51:23;31.70;48.20
31263;DHT22;17892;52.080;9.006;2022-08-19T11:53:50;31.80;48.70
31263;DHT22;17892;52.080;9.006;2022-08-19T11:56:17;31.90;48.60
31263;DHT22;17892;52.080;9.006;2022-08-19T11:58:44;32.10;48.60
31263;DHT22;17892;52.080;9.006;2022-08-19T12:01:11;32.20;48.80
31263;DHT22;17892;52.080;9.006;2022-08-19T12:03:39;32.50;48.30
31263;DHT22;17892;52.080;9.006;2022-08-19T12:06:06;32.70;47.70
31263;DHT22;17892;52.080;9.006;2022-08-19T12:08:33;32.90;47.30
31263;DHT22;17892;52.080;9.006;2022-08-19T12:10:59;33.00;46.80
31263;DHT22;17892;52.080;9.006;2022-08-19T12:13:29;33.20;46.50
31263;DHT22;17892;52.080;9.006;2022-08-19T12:15:55;33.20;45.90
31263;DHT22;17892;52.080;9.006;2022-08-19T12:18:22;33.30;45.60
31263;DHT22;17892;52.080;9.006;2022-08-19T12:20:51;33.30;45.40
31263;DHT22;17892;52.080;9.006;2022-08-19T12:23:18;33.40;44.40
31263;DHT22;17892;52.080;9.006;2022-08-19T12:25:46;33.40;44.50
31263;DHT22;17892;52.080;9.006;2022-08-19T12:28:16;33.40;44.70
31263;DHT22;17892;52.080;9.006;2022-08-19T12:30:42;33.40;45.20
31263;DHT22;17892;52.080;9.006;2022-08-19T12:33:08;33.50;44.90
31263;DHT22;17892;52.080;9.006;2022-08-19T12:35:34;33.60;44.80
31263;DHT22;17892;52.080;9.006;2022-08-19T12:37:59;33.70;44.00
31263;DHT22;17892;52.080;9.006;2022-08-19T12:40:26;33.70;43.80
31263;DHT22;17892;52.080;9.006;2022-08-19T12:42:53;33.70;43.40
31263;DHT22;17892;52.080;9.006;2022-08-19T12:45:19;33.70;43.30
31263;DHT22;17892;52.080;9.006;2022-08-19T12:47:45;33.60;43.60
31263;DHT22;17892;52.080;9.006;2022-08-19T12:50:12;33.60;44.20
31263;DHT22;17892;52.080;9.006;2022-08-19T12:52:37;33.60;44.20
31263;DHT22;17892;52.080;9.006;2022-08-19T12:55:05;33.70;44.10
31263;DHT22;17892;52.080;9.006;2022-08-19T12:57:32;33.70;44.00
31263;DHT22;17892;52.080;9.006;2022-08-19T13:00:11;33.70;44.20
31263;DHT22;17892;52.080;9.006;2022-08-19T13:02:40;33.80;44.30
31263;DHT22;17892;52.080;9.006;2022-08-19T13:05:12;33.90;43.70
31263;DHT22;17892;52.080;9.006;2022-08-19T13:07:40;33.90;43.70
31263;DHT22;17892;52.080;9.006;2022-08-19T13:10:08;34.00;43.10
31263;DHT22;17892;52.080;9.006;2022-08-19T13:12:35;34.00;42.70
31263;DHT22;17892;52.080;9.006;2022-08-19T13:15:01;34.10;42.10
31263;DHT22;17892;52.080;9.006;2022-08-19T13:17:27;34.10;41.70
31263;DHT22;17892;52.080;9.006;2022-08-19T13:19:52;34.10;40.40
31263;DHT22;17892;52.080;9.006;2022-08-19T13:22:18;34.00;40.50
31263;DHT22;17892;52.080;9.006;2022-08-19T13:24:44;34.00;39.60
31263;DHT22;17892;52.080;9.006;2022-08-19T13:27:10;34.00;39.80
31263;DHT22;17892;52.080;9.006;2022-08-19T13:29:35;33.90;39.70
31263;DHT22;17892;52.080;9.006;2022-08-19T13:32:19;33.80;39.80
31263;DHT22;17892;52.080;9.006;2022-08-19T13:35:04;33.70;39.60
31263;DHT22;17892;52.080;9.006;2022-08-19T13:37:30;33.60;39.80
31263;DHT22;17892;52.080;9.006;2022-08-19T13:40:14;33.50;39.60
31263;DHT22;17892;52.080;9.006;2022-08-19T13:42:48;33.50;40.10
31263;DHT22;17892;52.080;9.006;2022-08-19T13:45:18;33.50;39.90
31263;DHT22;17892;52.080;9.006;2022-08-19T13:47:48;33.50;39.80
31263;DHT22;17892;52.080;9.006;2022-08-19T13:50:18;33.50;40.00
31263;DHT22;17892;52.080;9.006;2022-08-19T13:52:52;33.60;39.90
31263;DHT22;17892;52.080;9.006;2022-08-19T13:55:18;33.60;39.90
31263;DHT22;17892;52.080;9.006;2022-08-19T13:57:45;33.70;40.00
31263;DHT22;17892;52.080;9.006;2022-08-19T14:00:14;33.80;39.80
31263;DHT22;17892;52.080;9.006;2022-08-19T14:02:48;33.80;39.60
31263;DHT22;17892;52.080;9.006;2022-08-19T14:05:16;33.90;39.60
31263;DHT22;17892;52.080;9.006;2022-08-19T14:07:43;34.00;39.70
31263;DHT22;17892;52.080;9.006;2022-08-19T14:10:10;34.00;39.60
31263;DHT22;17892;52.080;9.006;2022-08-19T14:12:38;34.10;38.90
31263;DHT22;17892;52.080;9.006;2022-08-19T14:15:06;34.10;39.00
31263;DHT22;17892;52.080;9.006;2022-08-19T14:17:33;34.20;39.10
31263;DHT22;17892;52.080;9.006;2022-08-19T14:20:01;34.20;39.00
31263;DHT22;17892;52.080;9.006;2022-08-19T14:22:33;34.20;39.90
31263;DHT22;17892;52.080;9.006;2022-08-19T14:25:04;34.10;39.00
31263;DHT22;17892;52.080;9.006;2022-08-19T14:27:39;34.10;38.60
31263;DHT22;17892;52.080;9.006;2022-08-19T14:30:07;34.00;38.80
31263;DHT22;17892;52.080;9.006;2022-08-19T14:32:35;33.90;38.70
31263;DHT22;17892;52.080;9.006;2022-08-19T14:35:01;33.80;38.50
31263;DHT22;17892;52.080;9.006;2022-08-19T14:37:27;33.70;38.50
31263;DHT22;17892;52.080;9.006;2022-08-19T14:39:53;33.50;38.40
31263;DHT22;17892;52.080;9.006;2022-08-19T14:42:19;33.30;38.20
31263;DHT22;17892;52.080;9.006;2022-08-19T14:44:44;33.10;38.30
31263;DHT22;17892;52.080;9.006;2022-08-19T14:47:11;32.90;39.60
31263;DHT22;17892;52.080;9.006;2022-08-19T14:49:37;32.80;39.30
31263;DHT22;17892;52.080;9.006;2022-08-19T14:52:03;32.70;39.30
31263;DHT22;17892;52.080;9.006;2022-08-19T14:54:29;32.60;39.40
31263;DHT22;17892;52.080;9.006;2022-08-19T14:56:55;32.40;39.30
31263;DHT22;17892;52.080;9.006;2022-08-19T14:59:21;32.30;39.40
31263;DHT22;17892;52.080;9.006;2022-08-19T15:01:47;32.00;39.30
31263;DHT22;17892;52.080;9.006;2022-08-19T15:04:13;31.70;39.50
31263;DHT22;17892;52.080;9.006;2022-08-19T15:06:39;31.40;39.90
31263;DHT22;17892;52.080;9.006;2022-08-19T15:09:05;31.20;40.30
31263;DHT22;17892;52.080;9.006;2022-08-19T15:11:31;30.90;40.50
31263;DHT22;17892;52.080;9.006;2022-08-19T15:13:58;30.70;40.90
31263;DHT22;17892;52.080;9.006;2022-08-19T15:16:25;30.50;41.40
31263;DHT22;17892;52.080;9.006;2022-08-19T15:18:54;30.30;41.90
31263;DHT22;17892;52.080;9.006;2022-08-19T15:21:23;30.20;42.10
31263;DHT22;17892;52.080;9.006;2022-08-19T15:23:50;30.10;42.20
31263;DHT22;17892;52.080;9.006;2022-08-19T15:26:18;30.00;42.40
31263;DHT22;17892;52.080;9.006;2022-08-19T15:28:45;29.90;42.60
31263;DHT22;17892;52.080;9.006;2022-08-19T15:31:12;29.80;42.90
31263;DHT22;17892;52.080;9.006;2022-08-19T15:33:39;29.70;43.20
31263;DHT22;17892;52.080;9.006;2022-08-19T15:36:10;29.60;43.50
31263;DHT22;17892;52.080;9.006;2022-08-19T15:38:37;29.50;43.90
31263;DHT22;17892;52.080;9.006;2022-08-19T15:41:04;29.40;44.20
31263;DHT22;17892;52.080;9.006;2022-08-19T15:44:03;29.50;44.40
31263;DHT22;17892;52.080;9.006;2022-08-19T15:46:43;29.50;44.60
31263;DHT22;17892;52.080;9.006;2022-08-19T15:49:12;29.50;44.50
31263;DHT22;17892;52.080;9.006;2022-08-19T15:51:40;29.50;44.60